Moss Landing, CA (95039)

6:19 AM PDT on August 31, 2015 (GMT -0700)
Moss Landing Heights | | Change Station
CLOSE
Current Station
Personal Weather Station
Location: Moss Landing, CA
Elevation: 30 ft
Nearby Weather Stations

Elev 30 ft 36.79 °N, 121.79 °W | Updated 12 seconds ago

Clear
Clear
58.6 °F
Feels Like 58.6 °F
N
0.0
Wind Variable Wind from NNE
Gusts 3.0 mph

Today
High -- | Low -- °F
--% Chance of Precip.
Yesterday
High -- | Low -- °F
Precip. -- in
6:37 AM 7:37 PM
Waning Gibbous, 95% visible
Pressure 29.94 in
Visibility 10.0 miles
Clouds Clear
Dew Point 58 °F
Humidity 97%
Rainfall 0.00 in
Snow Depth Not available.
UV 0 out of 12
Pollen 6.60 out of 12
Air Quality Not available.
Flu Activity Not available.
METAR KWVI 311253Z AUTO 00000KT 10SM CLR 14/12 A2994 RMK AO2 SLP137 T01440117
Pressure 29.94 in
Visibility 10.0 miles
Clouds Clear
Dew Point 58 °F
Humidity 97%
Rainfall 0.00 in
Snow Depth Not available.
UV 0 out of 12
Pollen 6.60 out of 12
Air Quality Not available.
Flu Activity Not available.
METAR KWVI 311253Z AUTO 00000KT 10SM CLR 14/12 A2994 RMK AO2 SLP137 T01440117

10-Day Weather Forecast

×

Almanac

Astronomy

Aug. 31, 2015 Rise Set
Actual Time
Civil Twilight
Nautical Twilight
Astronomical Twilight
Moon
Length of Visible Light
Length of Day
Tomorrow will be .
, % of the Moon is Illuminated

Today's Extremes

State Highs State Lows

Community

WunderPhotos

Upload Photos

1,851,226 photos uploaded!

WunderBlogs® & News

Nearby

Air Quality

  Air Quality AQ Index Pollutant
Not available.

Snow Depth

Station Depth Elevation

Earthquake Activity

City Distance Mag. Time & Date
Minimum magnitude displayed is 2.5.

Coastal Water Temperatures

Place Temperature

Stations

Nearby Weather Stations

Station Location Temp. Windchill Dew Point Humidity Wind Precip. Elev Updated Type